Kalida, Ohio
Current Conditions -  °F | °C
As of 1:19 PM on Thursday 27 Nov 2014 (Local Time) from KAOH Reporting Station
Overcast Overcast  
Wind Chill: 23°   Ceiling: 2900
Heat Index: 33°   Visibility: 10mi
Dew Point: 22°   Wind: 15mph
Humidity: 64%   Direction: 260°W
Pressure: 30.2"   Gusts: NA
Location:  40.98°N, 84.2°W
Report Text: KAOH 271819Z AUTO 26013KT 10SM BKN029 OVC035 01/M06 A3020 RMK AO2 T00061056
Loading
Personal Weather Stations






























Interactive Weather Map New forecast layout! Learn more

10-Day Weather Forecast

Advertisements
Track Severe Weather on mobile